ASN logo
ASN Wikibase Occurrence # 203219
Last updated: 8 May 2019
This information is added by users of ASN. Neither ASN nor the Flight Safety Foundation are responsible for the completeness or correctness of this information. If you feel this information is incomplete or incorrect, you can submit corrected information.

Date:22-DEC-2017
Time:c. 10:06 LT
Type:Silhouette image of generic B733 model; specific model in this crash may look slightly different
Boeing 737-3Q8
Owner/operator:Belavia
Registration: EW-336PA
C/n / msn: 26312/2693
Fatalities:Fatalities: 0 / Occupants:
Other fatalities:0
Aircraft damage: Unknown
Location:Kyiv-Boryspil Airport (KBP/UKBB) -   Ukraine
Phase: Landing
Nature:International Scheduled Passenger
Departure airport:Minsk-2 International Airport (MSQ/UMMS)
Destination airport:Kyiv-Boryspil Airport (KBP/UKBB)
Narrative:
Belavia flight B2843, a Boeing 737-300, suffered a runway excursion into snow after landing on runway 18L at Kyiv-Boryspil Airport, Ukraine.

Weather reported about the incident time (07:06Z):
UKBB 220730Z 23004MPS 5000 -SN SCT007 OVC012 M02/M02 Q1017 RESHSN R18L/591026 TEMPO 1000 -FZRA -SHSN BR SCT015CB
UKBB 220715Z 23004MPS 4200 -SHSN SCT007 BKN009CB M02/M02 Q1017 R18L/591026 TEMPO 1000 -FZRA -SHSN BR SCT015CB
UKBB 220704Z 23003MPS 1300 R18L/P2000N R18R/1600VP2000N SHSN BKN006 BKN009CB M02/M02 Q1017 R18L/591026 TEMPO 1000 -FZRA -SHSN BR SCT015CB
UKBB 220700Z 23004MPS 3500 -SN OVC007 M02/M02 Q1017 R18L/591026 TEMPO 1000 -FZRA -SHSN BR SCT015CB
UKBB 220630Z 22003MPS 2200 -SN OVC010 M02/M02 Q1017 R18L/591030 TEMPO 1000 -FZRA -SHSN BR SCT015CB

Sources:

https://economics.unian.net/transport/2313164-posle-intsidenta-s-belorusskim-samoletom-aeroport-borispol-rabotaet-v-shtatnom-rejime.html
https://www.flightradar24.com/data/aircraft/ew-336pa#fe8f75d


Images:

Photo of EW-336PA courtesy AirHistory.net


Helsinki - Vantaa (EFHK / HEL)
12 February 2018; (c) Pertti Sipilš

Revision history:

Date/timeContributorUpdates
22-Dec-2017 11:07 harro Added
22-Dec-2017 11:13 harro Updated
22-Dec-2017 11:15 harro Updated
04-Jan-2019 07:53 xtrasymphony Updated

Corrections or additions? ... Edit this accident description